createdAt,value
2023-02-08T00:00:53.198Z,75.55
2023-02-08T00:03:19.875Z,53.78
2023-02-08T00:05:46.701Z,63.03
2023-02-08T00:08:13.534Z,54.25
2023-02-08T00:10:40.567Z,75.40
2023-02-08T00:13:10.474Z,81.55
2023-02-08T00:15:44.368Z,86.70
2023-02-08T00:20:51.306Z,57.00
2023-02-08T00:23:19.615Z,62.33
2023-02-08T00:25:48.092Z,61.60
2023-02-08T00:28:19.233Z,57.83
2023-02-08T00:30:49.628Z,50.35
2023-02-08T00:33:21.563Z,54.58
2023-02-08T00:35:48.214Z,44.22
2023-02-08T00:38:14.861Z,45.22
2023-02-08T00:40:49.103Z,44.70
2023-02-08T00:43:15.732Z,43.33
2023-02-08T00:45:42.325Z,47.67
2023-02-08T00:48:09.078Z,43.17
2023-02-08T00:50:37.109Z,47.45
2023-02-08T00:53:05.821Z,40.75
2023-02-08T00:55:32.642Z,39.85
2023-02-08T00:57:59.222Z,40.00
2023-02-08T01:00:25.871Z,40.17
2023-02-08T01:03:09.890Z,40.13
2023-02-08T01:05:46.685Z,40.75
2023-02-08T01:08:24.901Z,34.17
2023-02-08T01:10:51.679Z,33.72
2023-02-08T01:13:21.573Z,36.00
2023-02-08T01:15:53.717Z,31.27
2023-02-08T01:18:33.530Z,34.13
2023-02-08T01:21:08.831Z,38.70
2023-02-08T01:23:41.729Z,36.55
2023-02-08T01:26:11.725Z,39.37
2023-02-08T01:28:41.901Z,40.40
2023-02-08T01:31:17.617Z,36.97
2023-02-08T01:33:44.661Z,40.10
2023-02-08T01:36:15.118Z,40.15
2023-02-08T01:38:49.162Z,37.47
2023-02-08T01:41:19.939Z,38.30
2023-02-08T01:44:11.652Z,36.20
2023-02-08T01:46:51.687Z,42.72
2023-02-08T01:49:22.488Z,34.28
2023-02-08T01:51:57.587Z,31.63
2023-02-08T01:54:31.719Z,35.30
2023-02-08T01:56:58.631Z,33.03
2023-02-08T01:59:36.439Z,33.70
2023-02-08T02:02:03.739Z,35.33
2023-02-08T02:04:30.797Z,36.05
2023-02-08T02:07:00.493Z,38.63
2023-02-08T02:09:32.704Z,45.38
2023-02-08T02:12:00.109Z,44.97
2023-02-08T02:14:26.834Z,48.13
2023-02-08T02:16:53.734Z,46.60
2023-02-08T02:19:44.932Z,48.70
2023-02-08T02:22:49.313Z,46.80
2023-02-08T02:26:12.075Z,34.28
2023-02-08T02:28:45.027Z,41.92
2023-02-08T02:31:48.462Z,41.83
2023-02-08T02:34:34.250Z,44.10
2023-02-08T02:37:14.098Z,46.90
2023-02-08T02:40:01.433Z,46.63
2023-02-08T02:43:03.261Z,39.63
2023-02-08T02:45:36.547Z,33.38
2023-02-08T02:48:12.929Z,35.67
2023-02-08T02:51:08.663Z,38.47
2023-02-08T02:53:52.050Z,33.92
2023-02-08T02:56:24.273Z,38.78
2023-02-08T02:58:53.160Z,37.28
2023-02-08T03:01:30.112Z,37.75
2023-02-08T03:03:57.169Z,32.15
2023-02-08T03:06:51.520Z,41.63
2023-02-08T03:12:28.039Z,38.03
2023-02-08T03:15:21.507Z,31.17
2023-02-08T03:18:28.477Z,31.17
2023-02-08T03:21:07.174Z,32.33
2023-02-08T03:23:46.787Z,44.00
2023-02-08T03:26:43.242Z,40.33
2023-02-08T03:29:33.940Z,38.03
2023-02-08T03:32:07.089Z,38.72
2023-02-08T03:34:43.551Z,36.17
2023-02-08T03:37:26.596Z,53.63
2023-02-08T03:40:02.803Z,50.70
2023-02-08T03:42:33.775Z,40.30
2023-02-08T03:45:36.467Z,38.92
2023-02-08T03:48:06.726Z,38.13
2023-02-08T03:50:38.611Z,42.88
2023-02-08T03:53:08.248Z,38.67
2023-02-08T03:55:38.135Z,37.08
2023-02-08T03:58:16.228Z,39.40
2023-02-08T04:00:48.817Z,171.10
2023-02-08T04:03:28.553Z,45.95
2023-02-08T04:05:55.849Z,87.63
2023-02-08T04:08:23.060Z,71.53
2023-02-08T04:10:49.904Z,61.72
2023-02-08T04:13:18.947Z,130.98
2023-02-08T04:15:45.646Z,44.70
2023-02-08T04:18:12.786Z,38.78
2023-02-08T04:20:39.704Z,46.90
2023-02-08T04:23:06.812Z,45.05
2023-02-08T04:25:33.424Z,41.25
2023-02-08T04:28:00.109Z,43.75
2023-02-08T04:30:27.063Z,41.92
2023-02-08T04:32:54.063Z,33.45
2023-02-08T04:35:20.795Z,35.47
2023-02-08T04:37:47.953Z,45.60
2023-02-08T04:40:14.551Z,39.95
2023-02-08T04:42:41.359Z,39.67
2023-02-08T04:45:08.696Z,51.60
2023-02-08T04:47:35.282Z,35.80
2023-02-08T04:50:02.080Z,35.42
2023-02-08T04:52:29.226Z,38.13
2023-02-08T04:54:55.889Z,55.65
2023-02-08T04:57:22.640Z,33.35
2023-02-08T04:59:49.488Z,46.20
2023-02-08T05:02:16.172Z,36.83
2023-02-08T05:04:43.055Z,42.40
2023-02-08T05:07:09.711Z,41.30
2023-02-08T05:09:36.345Z,38.92
2023-02-08T05:12:03.160Z,45.55
2023-02-08T05:14:30.029Z,36.67
2023-02-08T05:16:56.667Z,43.67
2023-02-08T05:19:23.515Z,39.25
2023-02-08T05:21:50.247Z,43.50
2023-02-08T05:24:17.063Z,42.30
2023-02-08T05:26:43.777Z,37.05
2023-02-08T05:29:10.759Z,37.80
2023-02-08T05:31:37.556Z,35.78
2023-02-08T05:34:04.419Z,120.93
2023-02-08T05:36:31.113Z,58.15
2023-02-08T05:38:57.806Z,32.15
2023-02-08T05:41:24.436Z,29.85
2023-02-08T05:43:51.106Z,59.05
2023-02-08T05:46:17.798Z,33.78
2023-02-08T05:48:44.610Z,35.67
2023-02-08T05:51:11.425Z,38.28
2023-02-08T05:53:38.494Z,36.88
2023-02-08T05:56:05.436Z,38.42
2023-02-08T05:58:33.360Z,30.25
2023-02-08T06:00:59.970Z,55.08
2023-02-08T06:03:27.892Z,26.05
2023-02-08T06:05:54.704Z,29.67
2023-02-08T06:08:21.298Z,28.75
2023-02-08T06:10:49.768Z,33.45
2023-02-08T06:13:16.616Z,28.92
2023-02-08T06:15:43.895Z,29.02
2023-02-08T06:18:11.964Z,41.00
2023-02-08T06:20:39.152Z,34.65
2023-02-08T06:23:12.059Z,29.83
2023-02-08T06:25:39.302Z,37.57
2023-02-08T06:28:06.936Z,33.15
2023-02-08T06:30:33.887Z,30.27
2023-02-08T06:33:00.547Z,33.42
2023-02-08T06:35:27.280Z,26.80
2023-02-08T06:37:54.360Z,31.17
2023-02-08T06:40:21.021Z,39.85
2023-02-08T06:42:48.763Z,37.20
2023-02-08T06:45:15.602Z,33.42
2023-02-08T06:47:42.486Z,80.45
2023-02-08T06:50:10.275Z,70.93
2023-02-08T06:52:37.258Z,56.85
2023-02-08T06:55:04.122Z,57.65
2023-02-08T06:57:30.745Z,60.33
2023-02-08T06:59:57.315Z,81.47
2023-02-08T07:02:24.238Z,72.07
2023-02-08T07:04:51.187Z,65.10
2023-02-08T07:07:18.928Z,58.28
2023-02-08T07:09:45.689Z,63.22
2023-02-08T07:12:12.415Z,72.10
2023-02-08T07:14:41.526Z,68.82
2023-02-08T07:17:08.924Z,61.72
2023-02-08T07:19:35.585Z,64.88
2023-02-08T07:22:08.059Z,72.30
2023-02-08T07:24:40.091Z,89.18
2023-02-08T07:27:08.997Z,87.80
2023-02-08T07:29:36.371Z,109.78
2023-02-08T07:32:04.692Z,131.95
2023-02-08T07:34:33.862Z,144.02
2023-02-08T07:37:00.598Z,112.15
2023-02-08T07:39:27.424Z,114.13
2023-02-08T07:41:54.284Z,101.50
2023-02-08T07:44:20.939Z,93.45
2023-02-08T07:46:47.931Z,99.88
2023-02-08T07:49:14.726Z,109.88
2023-02-08T07:51:41.452Z,96.80
2023-02-08T07:54:08.400Z,99.03
2023-02-08T07:56:35.125Z,99.47
2023-02-08T07:59:01.787Z,97.78
2023-02-08T08:01:28.609Z,92.03
2023-02-08T08:03:55.343Z,95.97
2023-02-08T08:06:23.116Z,101.10
2023-02-08T08:08:50.776Z,91.43
2023-02-08T08:11:18.772Z,90.20
2023-02-08T08:13:45.452Z,75.88
2023-02-08T08:16:13.187Z,62.42
2023-02-08T08:18:39.891Z,58.88
2023-02-08T08:21:07.594Z,56.65
2023-02-08T08:23:36.211Z,55.05
2023-02-08T08:26:20.412Z,52.42
2023-02-08T08:31:21.021Z,47.78
2023-02-08T08:36:16.385Z,42.80
2023-02-08T08:38:43.072Z,42.42
2023-02-08T08:41:12.323Z,46.63
2023-02-08T08:43:39.238Z,42.97
2023-02-08T08:46:07.753Z,43.67
2023-02-08T08:48:36.029Z,47.90
2023-02-08T08:51:03.116Z,51.35
2023-02-08T08:53:29.872Z,50.97
2023-02-08T08:55:56.574Z,48.17
2023-02-08T08:58:23.327Z,46.95
2023-02-08T09:00:50.108Z,47.78
2023-02-08T09:03:16.974Z,39.75
2023-02-08T09:05:43.767Z,49.28
2023-02-08T09:08:10.353Z,38.35
2023-02-08T09:10:37.126Z,38.92
2023-02-08T09:13:03.785Z,33.20
2023-02-08T09:15:30.581Z,38.70
2023-02-08T09:17:57.266Z,38.28
2023-02-08T09:20:24.134Z,39.50
2023-02-08T09:22:50.951Z,31.80
2023-02-08T09:25:18.119Z,30.35
2023-02-08T09:27:44.802Z,30.52
2023-02-08T09:30:11.770Z,27.27
2023-02-08T09:32:40.176Z,26.35
2023-02-08T09:35:08.555Z,27.70
2023-02-08T09:37:35.289Z,23.98
2023-02-08T09:40:02.484Z,22.85
2023-02-08T09:42:43.476Z,19.83
2023-02-08T09:45:26.278Z,14.95
2023-02-08T09:48:24.222Z,16.23
2023-02-08T09:51:06.183Z,16.80
2023-02-08T09:53:47.488Z,20.20
2023-02-08T09:56:17.960Z,17.58
2023-02-08T09:58:51.733Z,19.77
2023-02-08T10:01:22.910Z,16.98
2023-02-08T10:03:53.538Z,17.65
2023-02-08T10:06:21.194Z,16.40
2023-02-08T10:08:51.238Z,15.48
2023-02-08T10:11:29.970Z,14.43
2023-02-08T10:14:18.526Z,15.70
2023-02-08T10:16:55.857Z,18.63
2023-02-08T10:19:44.185Z,19.30
2023-02-08T10:22:20.288Z,14.15
2023-02-08T10:25:03.915Z,15.35
2023-02-08T10:27:37.652Z,16.10
2023-02-08T10:30:22.684Z,13.35
2023-02-08T10:33:00.323Z,13.80
2023-02-08T10:35:39.403Z,16.85
2023-02-08T10:38:21.429Z,16.38
2023-02-08T10:40:52.570Z,18.08
2023-02-08T10:43:35.527Z,16.75
2023-02-08T10:46:24.892Z,14.93
2023-02-08T10:49:19.578Z,17.30
2023-02-08T10:51:47.825Z,15.15
2023-02-08T10:54:15.573Z,15.18
2023-02-08T10:56:57.886Z,17.90
2023-02-08T10:59:30.450Z,17.65
2023-02-08T11:01:58.300Z,23.38
2023-02-08T11:04:25.474Z,16.13
2023-02-08T11:06:54.506Z,15.35
2023-02-08T11:09:30.108Z,18.17
2023-02-08T11:12:02.435Z,17.65
2023-02-08T11:14:47.085Z,12.63
2023-02-08T11:17:25.944Z,15.05
2023-02-08T11:19:53.220Z,14.45
2023-02-08T11:22:21.955Z,17.88
2023-02-08T11:25:07.004Z,14.65
2023-02-08T11:27:37.442Z,16.55
2023-02-08T11:30:13.272Z,19.13
2023-02-08T11:32:44.948Z,15.20
2023-02-08T11:35:22.011Z,24.98
2023-02-08T11:37:49.745Z,17.90
2023-02-08T11:40:24.806Z,18.92
2023-02-08T11:42:52.824Z,19.27
2023-02-08T11:45:27.805Z,18.17
2023-02-08T11:47:54.583Z,17.17
2023-02-08T11:50:37.034Z,18.75
2023-02-08T11:53:07.173Z,21.27
2023-02-08T11:55:35.093Z,20.75
2023-02-08T11:58:03.420Z,19.58
2023-02-08T12:00:36.210Z,16.52
2023-02-08T12:03:13.952Z,18.75
2023-02-08T12:06:06.483Z,19.80
2023-02-08T12:08:40.476Z,19.25
2023-02-08T12:11:43.802Z,20.08
2023-02-08T12:14:45.141Z,18.10
2023-02-08T12:17:48.745Z,20.83
2023-02-08T12:20:42.388Z,18.80
2023-02-08T12:23:24.117Z,18.30
2023-02-08T12:26:12.911Z,18.45
2023-02-08T12:29:11.847Z,16.63
2023-02-08T12:32:24.998Z,17.30
2023-02-08T12:34:54.286Z,18.08
2023-02-08T12:38:00.038Z,17.15
2023-02-08T12:40:52.790Z,15.85
2023-02-08T12:43:54.627Z,17.80
2023-02-08T12:46:26.505Z,18.95
2023-02-08T12:48:59.137Z,15.10
2023-02-08T12:51:25.781Z,14.20
2023-02-08T12:54:04.510Z,14.63
2023-02-08T12:56:37.413Z,16.00
2023-02-08T12:59:13.656Z,16.33
2023-02-08T13:01:51.490Z,14.95
2023-02-08T13:04:27.894Z,15.88
2023-02-08T13:07:02.848Z,16.40
2023-02-08T13:09:58.805Z,12.43
2023-02-08T13:12:42.498Z,14.48
2023-02-08T13:15:29.804Z,16.10
2023-02-08T13:18:10.799Z,13.48
2023-02-08T13:20:51.393Z,16.20
2023-02-08T13:23:50.528Z,17.02
2023-02-08T13:26:26.758Z,13.15
2023-02-08T13:28:56.237Z,14.38
2023-02-08T13:31:31.337Z,16.08
2023-02-08T13:34:02.272Z,17.45
2023-02-08T13:36:33.466Z,16.92
2023-02-08T13:39:02.992Z,14.75
2023-02-08T13:41:31.524Z,16.08
2023-02-08T13:44:05.498Z,15.55
2023-02-08T13:46:47.094Z,14.80
2023-02-08T13:49:44.871Z,16.38
2023-02-08T13:52:46.503Z,16.92
2023-02-08T13:55:36.175Z,15.38
2023-02-08T13:58:34.592Z,15.93
2023-02-08T14:01:13.831Z,19.95
2023-02-08T14:03:41.143Z,14.98
2023-02-08T14:06:23.960Z,18.20
2023-02-08T14:09:26.892Z,17.98
2023-02-08T14:12:00.796Z,18.95
2023-02-08T14:14:31.205Z,17.08
2023-02-08T14:17:19.083Z,16.95
2023-02-08T14:19:57.258Z,16.83
2023-02-08T14:22:24.934Z,20.05
2023-02-08T14:25:19.090Z,18.90
2023-02-08T14:27:58.197Z,18.95
2023-02-08T14:30:37.503Z,15.07
2023-02-08T14:33:09.927Z,13.20
2023-02-08T14:35:41.344Z,13.00
2023-02-08T14:38:20.142Z,16.33
2023-02-08T14:40:56.070Z,16.17
2023-02-08T14:43:35.905Z,13.35
2023-02-08T14:46:42.622Z,16.38
2023-02-08T14:49:14.305Z,12.35
2023-02-08T14:52:05.313Z,13.95
2023-02-08T14:54:46.101Z,14.30
2023-02-08T14:57:31.670Z,14.45
2023-02-08T15:00:17.679Z,17.80
2023-02-08T15:02:46.195Z,14.25
2023-02-08T15:05:25.410Z,11.27
2023-02-08T15:07:59.523Z,12.68
2023-02-08T15:13:03.912Z,13.35
2023-02-08T15:15:41.646Z,17.08
2023-02-08T15:18:19.019Z,14.02
2023-02-08T15:20:55.813Z,12.90
2023-02-08T15:23:24.280Z,15.27
2023-02-08T15:25:58.440Z,15.00
2023-02-08T15:31:08.011Z,11.13
2023-02-08T15:33:37.941Z,14.07
2023-02-08T15:36:25.882Z,10.88
2023-02-08T15:38:53.944Z,13.05
2023-02-08T15:41:30.061Z,15.07
2023-02-08T15:44:15.429Z,19.30
2023-02-08T15:46:43.972Z,13.82
2023-02-08T15:49:21.502Z,12.55
2023-02-08T15:51:50.648Z,13.55
2023-02-08T15:54:18.892Z,14.25
2023-02-08T15:57:05.725Z,16.83
2023-02-08T15:59:35.340Z,12.00
2023-02-08T16:02:19.715Z,13.63
2023-02-08T16:07:46.239Z,13.65
2023-02-08T16:10:29.465Z,17.38
2023-02-08T16:12:59.356Z,13.20
2023-02-08T16:15:41.167Z,12.70
2023-02-08T16:18:41.840Z,15.07
2023-02-08T16:21:42.493Z,14.82
2023-02-08T16:24:12.064Z,15.38
2023-02-08T16:26:50.731Z,15.18
2023-02-08T16:29:29.896Z,15.07
2023-02-08T16:32:04.230Z,16.58
2023-02-08T16:34:33.889Z,13.48
2023-02-08T16:37:02.404Z,16.63
2023-02-08T16:39:37.143Z,17.85
2023-02-08T16:42:19.499Z,16.65
2023-02-08T16:44:59.113Z,18.10
2023-02-08T16:47:34.820Z,15.07
2023-02-08T16:50:01.978Z,16.83
2023-02-08T16:52:28.996Z,17.45
2023-02-08T16:54:56.422Z,17.98
2023-02-08T16:57:23.198Z,21.55
2023-02-08T16:59:50.043Z,20.77
2023-02-08T17:02:16.725Z,19.25
2023-02-08T17:04:43.450Z,28.48
2023-02-08T17:07:18.568Z,23.20
2023-02-08T17:09:45.435Z,22.23
2023-02-08T17:12:21.907Z,22.90
2023-02-08T17:14:49.992Z,24.15
2023-02-08T17:17:16.774Z,20.83
2023-02-08T17:19:44.519Z,19.38
2023-02-08T17:22:11.725Z,20.38
2023-02-08T17:24:39.383Z,23.50
2023-02-08T17:27:06.364Z,23.05
2023-02-08T17:29:33.199Z,22.25
2023-02-08T17:31:59.784Z,19.05
2023-02-08T17:34:26.508Z,19.13
2023-02-08T17:36:53.102Z,24.15
2023-02-08T17:39:20.007Z,21.88
2023-02-08T17:41:46.593Z,26.45
2023-02-08T17:44:15.296Z,19.33
2023-02-08T17:46:42.553Z,20.45
2023-02-08T17:49:09.122Z,18.67
2023-02-08T17:51:36.166Z,21.55
2023-02-08T17:54:06.381Z,19.27
2023-02-08T17:56:35.530Z,25.77
2023-02-08T17:59:06.175Z,19.73
2023-02-08T18:01:33.325Z,21.88
2023-02-08T18:04:00.891Z,23.75
2023-02-08T18:06:28.907Z,23.17
2023-02-08T18:08:55.945Z,23.08
2023-02-08T18:11:24.124Z,21.15
2023-02-08T18:13:53.610Z,20.23
2023-02-08T18:16:28.331Z,19.88
2023-02-08T18:18:57.082Z,21.08
2023-02-08T18:21:30.123Z,20.58
2023-02-08T18:23:56.710Z,23.45
2023-02-08T18:26:25.404Z,21.33
2023-02-08T18:28:53.038Z,23.70
2023-02-08T18:31:20.533Z,25.27
2023-02-08T18:33:49.421Z,25.58
2023-02-08T18:36:16.932Z,25.05
2023-02-08T18:38:45.851Z,25.75
2023-02-08T18:41:16.890Z,31.50
2023-02-08T18:43:43.801Z,25.00
2023-02-08T18:46:14.223Z,25.23
2023-02-08T18:48:42.030Z,32.28
2023-02-08T18:51:10.325Z,39.70
2023-02-08T18:53:40.000Z,37.83
2023-02-08T18:56:08.433Z,37.65
2023-02-08T18:58:35.268Z,39.97
2023-02-08T19:01:10.695Z,34.15
2023-02-08T19:03:38.328Z,46.35
2023-02-08T19:06:10.085Z,38.10
2023-02-08T19:08:38.093Z,35.17
2023-02-08T19:11:05.690Z,38.38
2023-02-08T19:13:32.773Z,34.95
2023-02-08T19:15:59.898Z,41.80
2023-02-08T19:18:26.634Z,39.53
2023-02-08T19:20:53.340Z,34.42
2023-02-08T19:23:20.513Z,40.80
2023-02-08T19:25:47.422Z,40.25
2023-02-08T19:28:14.038Z,45.58
2023-02-08T19:30:40.945Z,39.28
2023-02-08T19:33:07.681Z,36.20
2023-02-08T19:35:37.352Z,40.67
2023-02-08T19:38:04.243Z,37.88
2023-02-08T19:40:31.296Z,35.42
2023-02-08T19:42:57.904Z,32.25
2023-02-08T19:45:25.470Z,39.30
2023-02-08T19:47:52.842Z,29.58
2023-02-08T19:50:19.812Z,30.65
2023-02-08T19:52:46.583Z,27.90
2023-02-08T19:55:13.333Z,28.38
2023-02-08T19:57:40.616Z,32.58
2023-02-08T20:00:17.625Z,29.67
2023-02-08T20:02:49.448Z,29.92
2023-02-08T20:05:16.214Z,28.52
2023-02-08T20:07:42.824Z,30.67
2023-02-08T20:10:10.763Z,31.08
2023-02-08T20:12:38.011Z,22.75
2023-02-08T20:15:05.063Z,29.48
2023-02-08T20:17:31.727Z,31.38
2023-02-08T20:19:58.403Z,23.60
2023-02-08T20:22:24.977Z,29.77
2023-02-08T20:24:51.633Z,36.08
2023-02-08T20:27:18.438Z,25.83
2023-02-08T20:29:45.081Z,30.17
2023-02-08T20:32:11.944Z,32.97
2023-02-08T20:34:54.136Z,29.92
2023-02-08T20:37:25.341Z,141.45
2023-02-08T20:39:52.215Z,36.25
2023-02-08T20:42:18.977Z,41.58
2023-02-08T20:44:45.590Z,34.85
2023-02-08T20:47:14.054Z,40.28
2023-02-08T20:49:44.724Z,42.55
2023-02-08T20:52:11.737Z,50.10
2023-02-08T20:54:39.059Z,45.13
2023-02-08T20:57:05.874Z,49.78
2023-02-08T20:59:32.707Z,46.05
2023-02-08T21:01:59.386Z,46.42
2023-02-08T21:04:27.180Z,48.10
2023-02-08T21:06:57.043Z,45.10
2023-02-08T21:09:23.927Z,46.08
2023-02-08T21:11:51.436Z,55.30
2023-02-08T21:14:20.899Z,43.38
2023-02-08T21:17:00.857Z,46.92
2023-02-08T21:19:29.321Z,42.53
2023-02-08T21:21:59.095Z,45.75
2023-02-08T21:24:32.479Z,39.67
2023-02-08T21:26:59.666Z,44.30
2023-02-08T21:29:26.863Z,36.78
2023-02-08T21:31:54.687Z,35.28
2023-02-08T21:34:21.676Z,40.55
2023-02-08T21:36:48.425Z,37.70
2023-02-08T21:39:15.092Z,36.30
2023-02-08T21:41:41.728Z,43.40
2023-02-08T21:44:11.765Z,38.28
2023-02-08T21:46:41.216Z,42.65
2023-02-08T21:49:26.112Z,38.33
2023-02-08T21:52:11.502Z,34.85
2023-02-08T21:54:45.709Z,37.92
2023-02-08T21:57:19.090Z,28.52
2023-02-08T21:59:50.946Z,32.05
2023-02-08T22:02:25.548Z,27.05
2023-02-08T22:04:56.873Z,31.92
2023-02-08T22:07:24.786Z,28.83
2023-02-08T22:09:51.925Z,29.77
2023-02-08T22:12:21.079Z,35.50
2023-02-08T22:14:49.336Z,39.72
2023-02-08T22:17:16.592Z,35.55
2023-02-08T22:19:43.633Z,35.80
2023-02-08T22:22:11.282Z,31.48
2023-02-08T22:24:38.652Z,40.13
2023-02-08T22:27:05.566Z,35.08
2023-02-08T22:29:32.704Z,35.38
2023-02-08T22:31:59.553Z,35.58
2023-02-08T22:34:27.591Z,30.20
2023-02-08T22:36:54.582Z,47.53
2023-02-08T22:39:21.788Z,37.08
2023-02-08T22:41:48.858Z,40.53
2023-02-08T22:44:15.634Z,39.63
2023-02-08T22:46:42.405Z,38.80
2023-02-08T22:49:09.072Z,38.50
2023-02-08T22:51:36.130Z,47.17
2023-02-08T22:54:03.085Z,33.42
2023-02-08T22:56:29.849Z,35.20
2023-02-08T22:58:56.723Z,36.65
2023-02-08T23:01:27.108Z,30.88
2023-02-08T23:03:54.158Z,31.38
2023-02-08T23:06:20.987Z,28.85
2023-02-08T23:08:48.382Z,32.03
2023-02-08T23:11:16.027Z,27.92
2023-02-08T23:13:42.650Z,30.05
2023-02-08T23:16:12.710Z,33.92
2023-02-08T23:18:39.809Z,36.45
2023-02-08T23:21:08.660Z,34.35
2023-02-08T23:23:36.258Z,32.00
2023-02-08T23:26:07.274Z,33.78
2023-02-08T23:28:34.380Z,31.98
2023-02-08T23:31:05.437Z,28.42
2023-02-08T23:33:33.210Z,28.05
2023-02-08T23:35:59.803Z,33.65
2023-02-08T23:38:26.505Z,33.42
2023-02-08T23:40:53.081Z,33.63
2023-02-08T23:43:19.654Z,30.23
2023-02-08T23:45:46.350Z,35.67
2023-02-08T23:48:13.263Z,36.80
2023-02-08T23:50:40.004Z,33.17
2023-02-08T23:53:06.746Z,35.65
2023-02-08T23:55:33.509Z,34.13
2023-02-08T23:58:00.113Z,36.38
